createdAt,value
2022-12-18T00:01:26.970Z,4.56
2022-12-18T00:03:56.215Z,4.56
2022-12-18T00:06:26.121Z,4.53
2022-12-18T00:08:53.845Z,4.46
2022-12-18T00:11:23.334Z,4.48
2022-12-18T00:13:50.873Z,4.45
2022-12-18T00:16:22.020Z,4.56
2022-12-18T00:18:51.136Z,4.62
2022-12-18T00:21:19.294Z,4.52
2022-12-18T00:23:48.551Z,4.58
2022-12-18T00:26:22.261Z,4.54
2022-12-18T00:28:53.203Z,4.64
2022-12-18T00:31:23.412Z,4.61
2022-12-18T00:33:55.528Z,4.48
2022-12-18T00:36:26.087Z,4.50
2022-12-18T00:38:55.272Z,4.48
2022-12-18T00:44:18.666Z,4.45
2022-12-18T00:46:47.470Z,4.35
2022-12-18T00:49:16.232Z,4.47
2022-12-18T00:51:43.445Z,4.39
2022-12-18T00:54:12.326Z,4.40
2022-12-18T00:56:48.485Z,4.39
2022-12-18T00:59:17.259Z,4.36
2022-12-18T01:01:44.822Z,4.48
2022-12-18T01:04:12.729Z,4.26
2022-12-18T01:06:40.154Z,4.54
2022-12-18T01:09:07.533Z,4.44
2022-12-18T01:11:37.564Z,4.51
2022-12-18T01:14:05.375Z,4.43
2022-12-18T01:16:32.835Z,4.52
2022-12-18T01:19:00.047Z,4.56
2022-12-18T01:21:28.052Z,4.55
2022-12-18T01:23:56.536Z,4.56
2022-12-18T01:26:25.652Z,4.54
2022-12-18T01:28:52.957Z,4.46
2022-12-18T01:31:23.503Z,4.42
2022-12-18T01:33:52.365Z,4.61
2022-12-18T01:36:23.732Z,4.48
2022-12-18T01:38:52.971Z,4.23
2022-12-18T01:41:24.402Z,4.18
2022-12-18T01:44:00.680Z,4.27
2022-12-18T01:46:29.374Z,4.34
2022-12-18T01:49:01.059Z,4.65
2022-12-18T01:51:30.525Z,4.88
2022-12-18T01:54:00.488Z,4.85
2022-12-18T01:56:27.984Z,4.90
2022-12-18T01:59:01.343Z,4.92
2022-12-18T02:01:30.912Z,4.87
2022-12-18T02:04:23.900Z,4.88
2022-12-18T02:07:25.214Z,4.84
2022-12-18T02:10:15.285Z,4.79
2022-12-18T02:13:03.804Z,4.83
2022-12-18T02:15:49.336Z,4.62
2022-12-18T02:18:22.501Z,4.71
2022-12-18T02:21:08.465Z,4.75
2022-12-18T02:24:34.568Z,4.77
2022-12-18T02:27:08.747Z,4.74
2022-12-18T02:29:45.177Z,4.72
2022-12-18T02:32:17.791Z,4.63
2022-12-18T02:34:47.222Z,4.61
2022-12-18T02:37:19.352Z,4.58
2022-12-18T02:39:50.801Z,4.53
2022-12-18T02:42:19.779Z,4.51
2022-12-18T02:44:52.684Z,4.50
2022-12-18T02:47:33.945Z,4.05
2022-12-18T02:50:23.950Z,4.39
2022-12-18T02:53:02.371Z,4.34
2022-12-18T02:55:36.061Z,4.28
2022-12-18T02:58:27.758Z,4.27
2022-12-18T03:01:18.571Z,4.28
2022-12-18T03:03:58.752Z,4.22
2022-12-18T03:06:42.857Z,4.16
2022-12-18T03:09:15.876Z,4.18
2022-12-18T03:12:07.905Z,3.75
2022-12-18T03:14:39.577Z,4.16
2022-12-18T03:17:11.597Z,4.23
2022-12-18T03:19:40.357Z,4.18
2022-12-18T03:22:09.347Z,4.23
2022-12-18T03:24:47.863Z,4.14
2022-12-18T03:27:19.485Z,4.12
2022-12-18T03:29:53.149Z,3.97
2022-12-18T03:32:30.649Z,4.07
2022-12-18T03:35:03.807Z,3.99
2022-12-18T03:37:34.759Z,3.89
2022-12-18T03:40:02.350Z,3.99
2022-12-18T03:43:12.001Z,3.71
2022-12-18T03:45:46.971Z,3.83
2022-12-18T03:48:46.683Z,3.89
2022-12-18T03:51:49.979Z,4.00
2022-12-18T03:54:19.266Z,3.87
2022-12-18T03:57:10.072Z,3.85
2022-12-18T03:59:39.602Z,4.00
2022-12-18T04:02:09.679Z,3.95
2022-12-18T04:04:39.697Z,3.88
2022-12-18T04:07:40.148Z,3.93
2022-12-18T04:10:13.332Z,3.37
2022-12-18T04:12:42.087Z,3.77
2022-12-18T04:15:12.961Z,3.61
2022-12-18T04:17:44.705Z,3.76
2022-12-18T04:20:12.378Z,3.75
2022-12-18T04:22:43.566Z,3.73
2022-12-18T04:25:13.010Z,3.76
2022-12-18T04:27:49.599Z,3.78
2022-12-18T04:30:17.176Z,3.67
2022-12-18T04:32:50.535Z,3.51
2022-12-18T04:35:20.695Z,3.53
2022-12-18T04:37:47.794Z,3.69
2022-12-18T04:40:16.068Z,3.59
2022-12-18T04:42:46.993Z,3.76
2022-12-18T04:45:14.283Z,3.70
2022-12-18T04:47:41.371Z,3.67
2022-12-18T04:50:08.799Z,3.72
2022-12-18T04:52:35.987Z,3.73
2022-12-18T04:55:03.327Z,3.80
2022-12-18T04:57:30.673Z,3.82
2022-12-18T05:00:01.634Z,3.67
2022-12-18T05:02:29.383Z,3.55
2022-12-18T05:04:57.134Z,3.42
2022-12-18T05:07:24.800Z,3.41
2022-12-18T05:09:52.554Z,3.40
2022-12-18T05:12:20.191Z,3.29
2022-12-18T05:14:50.847Z,3.21
2022-12-18T05:17:18.705Z,3.71
2022-12-18T05:19:45.867Z,3.82
2022-12-18T05:22:13.074Z,3.74
2022-12-18T05:24:40.221Z,3.74
2022-12-18T05:27:07.697Z,3.74
2022-12-18T05:29:35.001Z,3.77
2022-12-18T05:32:02.220Z,3.80
2022-12-18T05:34:29.334Z,3.79
2022-12-18T05:36:56.456Z,3.79
2022-12-18T05:39:23.611Z,3.79
2022-12-18T05:41:50.721Z,3.63
2022-12-18T05:44:17.879Z,3.80
2022-12-18T05:46:45.099Z,3.82
2022-12-18T05:49:12.246Z,3.85
2022-12-18T05:51:39.319Z,3.77
2022-12-18T05:54:06.566Z,3.79
2022-12-18T05:56:33.870Z,3.87
2022-12-18T05:59:01.030Z,3.86
2022-12-18T06:01:28.491Z,3.82
2022-12-18T06:03:56.617Z,3.94
2022-12-18T06:06:26.553Z,3.92
2022-12-18T06:08:54.719Z,3.93
2022-12-18T06:11:24.497Z,3.97
2022-12-18T06:13:58.278Z,3.98
2022-12-18T06:16:27.550Z,3.94
2022-12-18T06:18:57.768Z,3.96
2022-12-18T06:21:25.088Z,4.01
2022-12-18T06:23:52.341Z,3.88
2022-12-18T06:26:39.941Z,4.02
2022-12-18T06:29:07.478Z,4.05
2022-12-18T06:31:34.859Z,4.03
2022-12-18T06:34:05.410Z,4.08
2022-12-18T06:36:32.911Z,4.03
2022-12-18T06:39:00.701Z,4.10
2022-12-18T06:41:28.195Z,4.00
2022-12-18T06:43:59.611Z,4.12
2022-12-18T06:46:27.324Z,4.08
2022-12-18T06:48:54.451Z,4.14
2022-12-18T06:51:23.538Z,4.18
2022-12-18T06:53:52.634Z,4.23
2022-12-18T06:56:19.869Z,4.19
2022-12-18T06:58:47.216Z,3.92
2022-12-18T07:01:15.372Z,4.12
2022-12-18T07:03:44.198Z,4.39
2022-12-18T07:06:20.283Z,4.37
2022-12-18T07:08:47.923Z,4.39
2022-12-18T07:11:15.875Z,4.41
2022-12-18T07:13:43.813Z,4.40
2022-12-18T07:16:18.641Z,4.46
2022-12-18T07:18:48.341Z,4.48
2022-12-18T07:21:20.424Z,4.06
2022-12-18T07:23:49.346Z,4.43
2022-12-18T07:26:49.860Z,4.48
2022-12-18T07:29:17.234Z,4.06
2022-12-18T07:31:44.498Z,4.37
2022-12-18T07:34:16.260Z,4.49
2022-12-18T07:36:43.831Z,4.49
2022-12-18T07:39:12.661Z,4.54
2022-12-18T07:41:46.763Z,4.56
2022-12-18T07:44:16.702Z,4.37
2022-12-18T07:46:43.952Z,4.59
2022-12-18T07:49:44.608Z,4.64
2022-12-18T07:54:57.028Z,4.70
2022-12-18T07:57:48.857Z,4.59
2022-12-18T08:00:11.943Z,4.71
2022-12-18T08:02:42.287Z,4.76
2022-12-18T08:05:10.009Z,4.76
2022-12-18T08:07:37.197Z,4.79
2022-12-18T08:10:04.851Z,4.85
2022-12-18T08:12:36.174Z,4.83
2022-12-18T08:15:03.779Z,4.80
2022-12-18T08:18:10.087Z,4.81
2022-12-18T08:20:40.327Z,4.44
2022-12-18T08:23:07.435Z,4.62
2022-12-18T08:25:35.156Z,4.79
2022-12-18T08:28:03.247Z,4.82
2022-12-18T08:30:30.527Z,4.88
2022-12-18T08:33:23.679Z,4.89
2022-12-18T08:35:50.996Z,4.66
2022-12-18T08:38:18.151Z,4.78
2022-12-18T08:40:48.663Z,4.98
2022-12-18T08:43:34.428Z,4.89
2022-12-18T08:46:01.826Z,4.93
2022-12-18T08:48:29.000Z,5.04
2022-12-18T08:50:58.097Z,5.04
2022-12-18T08:53:25.595Z,5.04
2022-12-18T08:55:53.456Z,5.04
2022-12-18T08:58:21.087Z,5.02
2022-12-18T09:00:48.353Z,5.13
2022-12-18T09:03:18.226Z,5.13
2022-12-18T09:05:47.218Z,4.98
2022-12-18T09:08:14.422Z,5.21
2022-12-18T09:10:46.094Z,5.16
2022-12-18T09:13:14.022Z,5.17
2022-12-18T09:15:46.475Z,5.11
2022-12-18T09:18:14.899Z,5.19
2022-12-18T09:20:42.504Z,5.22
2022-12-18T09:23:10.543Z,5.26
2022-12-18T09:25:38.185Z,4.75
2022-12-18T09:28:08.111Z,5.15
2022-12-18T09:30:35.485Z,5.26
2022-12-18T09:33:03.262Z,5.23
2022-12-18T09:35:30.926Z,5.26
2022-12-18T09:37:58.052Z,5.23
2022-12-18T09:40:30.225Z,5.00
2022-12-18T09:43:02.744Z,5.17
2022-12-18T09:45:38.233Z,4.95
2022-12-18T09:48:08.261Z,5.17
2022-12-18T09:50:40.580Z,5.24
2022-12-18T09:53:15.727Z,5.07
2022-12-18T09:55:46.014Z,5.29
2022-12-18T09:58:21.830Z,5.32
2022-12-18T10:00:55.938Z,5.39
2022-12-18T10:03:23.312Z,5.61
2022-12-18T10:06:02.744Z,5.73
2022-12-18T10:08:47.185Z,5.74
2022-12-18T10:11:41.183Z,5.96
2022-12-18T10:14:16.619Z,6.05
2022-12-18T10:16:53.086Z,5.96
2022-12-18T10:19:50.358Z,6.03
2022-12-18T10:22:36.849Z,5.97
2022-12-18T10:25:10.161Z,5.98
2022-12-18T10:27:37.518Z,5.99
2022-12-18T10:30:21.023Z,6.06
2022-12-18T10:32:48.363Z,6.04
2022-12-18T10:35:23.793Z,6.03
2022-12-18T10:38:14.489Z,6.11
2022-12-18T10:41:00.154Z,6.23
2022-12-18T10:43:37.407Z,6.39
2022-12-18T10:46:10.553Z,6.32
2022-12-18T10:48:53.251Z,6.24
2022-12-18T10:51:40.725Z,6.17
2022-12-18T10:54:20.629Z,6.30
2022-12-18T10:56:47.929Z,6.16
2022-12-18T10:59:17.434Z,6.09
2022-12-18T11:01:58.534Z,6.31
2022-12-18T11:04:33.323Z,6.41
2022-12-18T11:07:04.101Z,6.42
2022-12-18T11:09:33.397Z,6.42
2022-12-18T11:12:07.303Z,6.34
2022-12-18T11:14:47.127Z,6.79
2022-12-18T11:17:31.632Z,6.89
2022-12-18T11:20:20.732Z,6.99
2022-12-18T11:31:29.943Z,7.10
2022-12-18T11:34:29.431Z,7.25
2022-12-18T11:37:00.767Z,7.44
2022-12-18T11:39:28.021Z,7.53
2022-12-18T11:42:13.057Z,7.42
2022-12-18T11:44:49.555Z,7.51
2022-12-18T11:47:40.641Z,7.66
2022-12-18T11:50:20.584Z,7.93
2022-12-18T11:52:52.799Z,7.99
2022-12-18T11:55:32.482Z,7.82
2022-12-18T11:58:20.115Z,7.63
2022-12-18T12:04:53.642Z,7.74
2022-12-18T12:07:39.242Z,7.83
2022-12-18T12:10:44.104Z,7.82
2022-12-18T12:13:24.914Z,7.82
2022-12-18T12:19:52.529Z,7.60
2022-12-18T12:33:01.469Z,7.41
2022-12-18T12:35:50.951Z,7.24
2022-12-18T12:38:28.814Z,7.47
2022-12-18T12:41:03.765Z,7.25
2022-12-18T12:43:49.451Z,7.14
2022-12-18T12:46:22.759Z,6.86
2022-12-18T12:48:55.168Z,6.64
2022-12-18T12:51:34.240Z,6.62
2022-12-18T12:54:04.350Z,6.56
2022-12-18T12:56:50.854Z,6.66
2022-12-18T12:59:49.060Z,6.58
2022-12-18T13:06:02.451Z,6.62
2022-12-18T13:09:02.954Z,7.03
2022-12-18T13:12:02.321Z,6.91
2022-12-18T13:18:09.925Z,5.81
2022-12-18T13:20:53.710Z,6.12
2022-12-18T13:30:35.211Z,6.13
2022-12-18T13:36:35.190Z,5.85
2022-12-18T13:42:07.283Z,6.06
2022-12-18T13:44:40.009Z,5.92
2022-12-18T13:47:56.928Z,5.81
2022-12-18T13:50:30.951Z,5.13
2022-12-18T13:59:57.705Z,4.98
2022-12-18T14:02:34.474Z,4.53
2022-12-18T14:05:47.587Z,4.40
2022-12-18T14:08:48.241Z,4.39
2022-12-18T14:14:49.942Z,4.62
2022-12-18T14:17:24.960Z,4.70
2022-12-18T14:26:51.925Z,4.28
2022-12-18T14:29:39.418Z,4.41
2022-12-18T14:32:30.240Z,4.23
2022-12-18T14:35:42.292Z,4.20
2022-12-18T14:38:26.453Z,3.65
2022-12-18T14:41:01.047Z,3.95
2022-12-18T14:43:53.820Z,3.70
2022-12-18T14:46:36.270Z,3.80
2022-12-18T14:49:17.771Z,4.47
2022-12-18T14:51:50.970Z,4.53
2022-12-18T14:54:20.519Z,4.32
2022-12-18T14:56:52.149Z,4.12
2022-12-18T14:59:25.774Z,4.13
2022-12-18T15:05:21.466Z,4.33
2022-12-18T15:07:52.693Z,4.36
2022-12-18T15:10:34.373Z,1.94
2022-12-18T15:13:04.075Z,3.67
2022-12-18T15:15:34.770Z,3.69
2022-12-18T15:18:17.840Z,3.63
2022-12-18T15:20:49.398Z,3.43
2022-12-18T15:23:36.934Z,3.41
2022-12-18T15:30:02.934Z,3.70
2022-12-18T15:32:30.307Z,3.40
2022-12-18T15:35:23.833Z,3.37
2022-12-18T15:37:52.695Z,3.48
2022-12-18T15:40:22.957Z,3.36
2022-12-18T15:46:26.062Z,3.36
2022-12-18T15:49:02.594Z,3.37
2022-12-18T15:51:38.496Z,3.36
2022-12-18T15:54:14.112Z,3.58
2022-12-18T15:59:45.624Z,3.85
2022-12-18T16:02:18.913Z,3.00
2022-12-18T16:05:27.315Z,3.06
2022-12-18T16:07:54.716Z,3.21
2022-12-18T16:10:36.819Z,3.45
2022-12-18T16:13:19.013Z,2.81
2022-12-18T16:15:47.144Z,3.06
2022-12-18T16:18:14.839Z,3.24
2022-12-18T16:20:42.199Z,3.30
2022-12-18T16:23:09.279Z,3.59
2022-12-18T16:28:36.649Z,3.39
2022-12-18T16:31:05.883Z,3.02
2022-12-18T16:44:12.333Z,2.31
2022-12-18T16:50:27.561Z,2.47
2022-12-18T16:56:26.019Z,2.47
2022-12-18T16:58:58.186Z,2.48
2022-12-18T17:01:36.047Z,1.74
2022-12-18T17:06:54.208Z,2.22
2022-12-18T17:10:03.434Z,2.03
2022-12-18T17:13:06.574Z,1.63
2022-12-18T17:15:37.564Z,1.92
2022-12-18T17:18:34.378Z,2.09
2022-12-18T17:21:25.178Z,0.09
2022-12-18T17:24:01.799Z,2.07
2022-12-18T17:26:29.454Z,2.19
2022-12-18T17:28:57.838Z,2.27
2022-12-18T17:31:28.511Z,2.22
2022-12-18T17:33:56.465Z,2.06
2022-12-18T17:36:24.752Z,2.03
2022-12-18T17:38:53.639Z,2.29
2022-12-18T17:41:21.411Z,2.29
2022-12-18T17:43:57.065Z,2.25
2022-12-18T17:46:25.866Z,2.16
2022-12-18T17:48:55.840Z,2.06
2022-12-18T17:51:23.409Z,1.84
2022-12-18T17:54:11.543Z,1.99
2022-12-18T17:56:39.506Z,1.79
2022-12-18T17:59:07.379Z,1.70
2022-12-18T18:01:38.457Z,1.60
2022-12-18T18:04:09.950Z,1.57
2022-12-18T18:06:39.123Z,1.80
2022-12-18T18:09:16.118Z,1.84
2022-12-18T18:12:05.023Z,1.81
2022-12-18T18:14:33.154Z,1.78
2022-12-18T18:17:04.255Z,1.78
2022-12-18T18:20:32.218Z,1.91
2022-12-18T18:22:59.708Z,1.66
2022-12-18T18:28:41.471Z,1.66
2022-12-18T18:31:10.720Z,1.09
2022-12-18T18:33:38.995Z,1.32
2022-12-18T18:36:10.240Z,1.66
2022-12-18T18:38:37.289Z,1.78
2022-12-18T18:41:05.921Z,1.74
2022-12-18T18:43:35.380Z,1.86
2022-12-18T18:46:05.011Z,1.18
2022-12-18T18:48:36.464Z,1.41
2022-12-18T18:51:11.635Z,1.53
2022-12-18T18:53:42.409Z,1.78
2022-12-18T18:59:00.011Z,1.98
2022-12-18T19:01:27.968Z,2.24
2022-12-18T19:03:55.253Z,2.34
2022-12-18T19:06:25.158Z,2.06
2022-12-18T19:08:54.222Z,2.03
2022-12-18T19:11:41.795Z,2.00
2022-12-18T19:14:11.873Z,2.02
2022-12-18T19:16:39.410Z,2.04
2022-12-18T19:19:07.657Z,2.03
2022-12-18T19:21:35.430Z,1.95
2022-12-18T19:24:02.962Z,1.79
2022-12-18T19:26:30.556Z,1.75
2022-12-18T19:29:06.160Z,1.64
2022-12-18T19:31:36.354Z,1.55
2022-12-18T19:34:08.343Z,1.61
2022-12-18T19:36:38.274Z,1.69
2022-12-18T19:39:17.061Z,1.67
2022-12-18T19:41:45.327Z,1.80
2022-12-18T19:44:17.529Z,1.68
2022-12-18T19:46:46.312Z,1.60
2022-12-18T19:49:17.370Z,1.62
2022-12-18T19:51:45.495Z,1.61
2022-12-18T19:54:17.401Z,1.78
2022-12-18T19:56:46.178Z,1.88
2022-12-18T19:59:14.286Z,1.87
2022-12-18T20:01:42.216Z,2.04
2022-12-18T20:04:09.653Z,2.29
2022-12-18T20:06:50.214Z,2.24
2022-12-18T20:16:38.478Z,2.35
2022-12-18T20:19:06.527Z,2.49
2022-12-18T20:21:34.202Z,2.79
2022-12-18T20:24:02.304Z,2.85
2022-12-18T20:26:29.881Z,2.89
2022-12-18T20:28:57.255Z,2.71
2022-12-18T20:31:24.806Z,2.65
2022-12-18T20:33:54.521Z,2.50
2022-12-18T20:36:25.912Z,2.36
2022-12-18T20:38:57.298Z,2.47
2022-12-18T20:41:37.473Z,2.59
2022-12-18T20:44:21.675Z,2.74
2022-12-18T20:46:54.186Z,2.90
2022-12-18T20:49:21.771Z,3.09
2022-12-18T20:51:54.421Z,3.15
2022-12-18T20:54:22.987Z,2.97
2022-12-18T20:56:50.475Z,3.01
2022-12-18T20:59:18.187Z,3.01
2022-12-18T21:01:48.871Z,2.74
2022-12-18T21:04:18.262Z,2.74
2022-12-18T21:06:51.270Z,2.83
2022-12-18T21:09:20.504Z,3.05
2022-12-18T21:12:06.180Z,3.25
2022-12-18T21:14:53.575Z,3.10
2022-12-18T21:17:20.942Z,2.93
2022-12-18T21:19:48.241Z,2.71
2022-12-18T21:22:16.524Z,2.62
2022-12-18T21:24:43.895Z,2.57
2022-12-18T21:27:13.028Z,2.57
2022-12-18T21:29:46.440Z,2.69
2022-12-18T21:32:14.290Z,2.79
2022-12-18T21:34:47.472Z,2.76
2022-12-18T21:37:16.395Z,2.52
2022-12-18T21:39:43.581Z,2.53
2022-12-18T21:42:31.055Z,2.65
2022-12-18T21:44:58.544Z,2.68
2022-12-18T21:47:26.269Z,2.85
2022-12-18T21:49:53.811Z,2.59
2022-12-18T21:52:28.635Z,2.65
2022-12-18T21:55:03.257Z,2.81
2022-12-18T21:57:35.659Z,2.52
2022-12-18T22:00:05.592Z,2.54
2022-12-18T22:02:39.654Z,2.62
2022-12-18T22:05:07.483Z,2.43
2022-12-18T22:07:34.846Z,2.73
2022-12-18T22:10:02.411Z,2.77
2022-12-18T22:12:48.943Z,2.50
2022-12-18T22:15:21.810Z,2.53
2022-12-18T22:18:34.803Z,2.48
2022-12-18T22:21:05.917Z,2.71
2022-12-18T22:23:34.363Z,2.29
2022-12-18T22:26:10.856Z,2.61
2022-12-18T22:28:58.525Z,2.43
2022-12-18T22:31:25.719Z,2.38
2022-12-18T22:37:23.677Z,2.45
2022-12-18T22:39:50.854Z,2.42
2022-12-18T22:42:19.325Z,2.37
2022-12-18T22:48:16.751Z,2.05
2022-12-18T22:51:34.281Z,2.38
2022-12-18T23:00:21.020Z,2.18
2022-12-18T23:03:01.379Z,2.24
2022-12-18T23:05:30.819Z,2.37
2022-12-18T23:07:58.665Z,2.44
2022-12-18T23:10:26.444Z,2.38
2022-12-18T23:16:19.338Z,1.97
2022-12-18T23:22:17.833Z,1.92
2022-12-18T23:25:19.386Z,2.47
2022-12-18T23:27:55.076Z,2.39
2022-12-18T23:30:22.416Z,2.00
2022-12-18T23:32:49.728Z,2.48
2022-12-18T23:35:17.645Z,2.34
2022-12-18T23:38:00.742Z,2.28
2022-12-18T23:40:29.589Z,2.32
2022-12-18T23:42:56.875Z,2.28
2022-12-18T23:45:45.614Z,2.31
2022-12-18T23:48:12.984Z,2.16
2022-12-18T23:50:40.150Z,2.54
2022-12-18T23:53:39.592Z,2.63
2022-12-18T23:56:46.299Z,2.69
2022-12-18T23:59:13.979Z,2.64
